sensor_id;sensor_type;location;lat;lon;timestamp;P1;durP1;ratioP1;P2;durP2;ratioP2
72198;SDS011;72266;51.056;16.880;2024-01-07T00:01:04;12.30;;;4.70;;
72198;SDS011;72266;51.056;16.880;2024-01-07T00:04:14;15.00;;;5.20;;
72198;SDS011;72266;51.056;16.880;2024-01-07T00:07:03;15.00;;;5.80;;
72198;SDS011;72266;51.056;16.880;2024-01-07T00:10:09;18.70;;;6.40;;
72198;SDS011;72266;51.056;16.880;2024-01-07T00:13:28;12.80;;;4.70;;
72198;SDS011;72266;51.056;16.880;2024-01-07T00:16:30;17.00;;;6.20;;
72198;SDS011;72266;51.056;16.880;2024-01-07T00:19:25;15.70;;;5.70;;
72198;SDS011;72266;51.056;16.880;2024-01-07T00:22:02;12.50;;;4.90;;
72198;SDS011;72266;51.056;16.880;2024-01-07T00:24:35;15.40;;;6.10;;
72198;SDS011;72266;51.056;16.880;2024-01-07T00:27:09;16.70;;;6.20;;
72198;SDS011;72266;51.056;16.880;2024-01-07T00:29:43;11.90;;;4.80;;
72198;SDS011;72266;51.056;16.880;2024-01-07T00:32:24;12.60;;;4.80;;
72198;SDS011;72266;51.056;16.880;2024-01-07T00:35:28;12.90;;;4.70;;
72198;SDS011;72266;51.056;16.880;2024-01-07T00:38:44;12.80;;;4.20;;
72198;SDS011;72266;51.056;16.880;2024-01-07T00:41:41;11.90;;;4.20;;
72198;SDS011;72266;51.056;16.880;2024-01-07T00:44:37;12.50;;;4.20;;
72198;SDS011;72266;51.056;16.880;2024-01-07T00:47:35;12.00;;;4.40;;
72198;SDS011;72266;51.056;16.880;2024-01-07T00:50:36;11.70;;;4.60;;
72198;SDS011;72266;51.056;16.880;2024-01-07T00:53:48;11.60;;;4.20;;
72198;SDS011;72266;51.056;16.880;2024-01-07T00:56:54;10.60;;;5.00;;
72198;SDS011;72266;51.056;16.880;2024-01-07T01:02:38;12.20;;;5.00;;
72198;SDS011;72266;51.056;16.880;2024-01-07T01:05:12;14.50;;;5.80;;
72198;SDS011;72266;51.056;16.880;2024-01-07T01:07:46;14.70;;;5.80;;
72198;SDS011;72266;51.056;16.880;2024-01-07T01:10:21;11.20;;;3.70;;
72198;SDS011;72266;51.056;16.880;2024-01-07T01:12:55;13.40;;;4.30;;
72198;SDS011;72266;51.056;16.880;2024-01-07T01:15:29;11.60;;;5.20;;
72198;SDS011;72266;51.056;16.880;2024-01-07T01:18:05;10.00;;;3.80;;
72198;SDS011;72266;51.056;16.880;2024-01-07T01:20:51;13.10;;;5.20;;
72198;SDS011;72266;51.056;16.880;2024-01-07T01:23:41;14.10;;;4.10;;
72198;SDS011;72266;51.056;16.880;2024-01-07T01:26:38;9.20;;;3.90;;
72198;SDS011;72266;51.056;16.880;2024-01-07T01:29:27;16.00;;;5.80;;
72198;SDS011;72266;51.056;16.880;2024-01-07T01:32:02;14.80;;;5.30;;
72198;SDS011;72266;51.056;16.880;2024-01-07T01:34:36;15.80;;;5.60;;
72198;SDS011;72266;51.056;16.880;2024-01-07T01:37:10;13.20;;;4.50;;
72198;SDS011;72266;51.056;16.880;2024-01-07T01:39:44;11.10;;;3.70;;
72198;SDS011;72266;51.056;16.880;2024-01-07T01:42:19;15.40;;;5.90;;
72198;SDS011;72266;51.056;16.880;2024-01-07T01:44:52;9.50;;;3.50;;
72198;SDS011;72266;51.056;16.880;2024-01-07T01:47:29;10.80;;;4.40;;
72198;SDS011;72266;51.056;16.880;2024-01-07T01:50:14;10.50;;;4.90;;
72198;SDS011;72266;51.056;16.880;2024-01-07T01:53:17;11.90;;;3.80;;
72198;SDS011;72266;51.056;16.880;2024-01-07T01:55:51;15.80;;;5.60;;
72198;SDS011;72266;51.056;16.880;2024-01-07T01:58:24;10.60;;;4.40;;
72198;SDS011;72266;51.056;16.880;2024-01-07T02:00:59;11.30;;;4.70;;
72198;SDS011;72266;51.056;16.880;2024-01-07T02:03:33;13.20;;;5.60;;
72198;SDS011;72266;51.056;16.880;2024-01-07T02:06:08;12.30;;;4.60;;
72198;SDS011;72266;51.056;16.880;2024-01-07T02:08:43;11.80;;;4.10;;
72198;SDS011;72266;51.056;16.880;2024-01-07T02:11:18;12.90;;;4.70;;
72198;SDS011;72266;51.056;16.880;2024-01-07T02:13:52;10.70;;;4.10;;
72198;SDS011;72266;51.056;16.880;2024-01-07T02:16:26;9.90;;;4.00;;
72198;SDS011;72266;51.056;16.880;2024-01-07T02:19:01;12.40;;;4.10;;
72198;SDS011;72266;51.056;16.880;2024-01-07T02:21:34;12.80;;;4.40;;
72198;SDS011;72266;51.056;16.880;2024-01-07T02:24:17;13.50;;;4.90;;
72198;SDS011;72266;51.056;16.880;2024-01-07T02:27:26;11.80;;;4.50;;
72198;SDS011;72266;51.056;16.880;2024-01-07T02:30:11;14.10;;;5.10;;
72198;SDS011;72266;51.056;16.880;2024-01-07T02:33:10;12.70;;;4.70;;
72198;SDS011;72266;51.056;16.880;2024-01-07T02:36:05;11.20;;;3.50;;
72198;SDS011;72266;51.056;16.880;2024-01-07T02:38:54;12.70;;;4.20;;
72198;SDS011;72266;51.056;16.880;2024-01-07T02:41:51;15.70;;;5.50;;
72198;SDS011;72266;51.056;16.880;2024-01-07T02:44:45;12.80;;;5.00;;
72198;SDS011;72266;51.056;16.880;2024-01-07T02:47:19;10.30;;;3.90;;
72198;SDS011;72266;51.056;16.880;2024-01-07T02:49:54;12.20;;;4.30;;
72198;SDS011;72266;51.056;16.880;2024-01-07T02:52:28;14.80;;;6.70;;
72198;SDS011;72266;51.056;16.880;2024-01-07T02:55:01;15.40;;;5.20;;
72198;SDS011;72266;51.056;16.880;2024-01-07T02:57:35;8.10;;;3.10;;
72198;SDS011;72266;51.056;16.880;2024-01-07T03:00:09;17.50;;;5.10;;
72198;SDS011;72266;51.056;16.880;2024-01-07T03:02:43;10.00;;;3.40;;
72198;SDS011;72266;51.056;16.880;2024-01-07T03:05:18;10.20;;;2.80;;
72198;SDS011;72266;51.056;16.880;2024-01-07T03:07:52;13.90;;;4.00;;
72198;SDS011;72266;51.056;16.880;2024-01-07T03:10:26;15.60;;;5.40;;
72198;SDS011;72266;51.056;16.880;2024-01-07T03:13:00;10.20;;;3.50;;
72198;SDS011;72266;51.056;16.880;2024-01-07T03:15:34;12.30;;;4.20;;
72198;SDS011;72266;51.056;16.880;2024-01-07T03:18:09;9.70;;;4.20;;
72198;SDS011;72266;51.056;16.880;2024-01-07T03:20:43;13.40;;;5.10;;
72198;SDS011;72266;51.056;16.880;2024-01-07T03:23:16;13.30;;;4.30;;
72198;SDS011;72266;51.056;16.880;2024-01-07T03:25:50;14.40;;;5.60;;
72198;SDS011;72266;51.056;16.880;2024-01-07T03:28:24;14.80;;;5.00;;
72198;SDS011;72266;51.056;16.880;2024-01-07T03:30:57;13.50;;;5.30;;
72198;SDS011;72266;51.056;16.880;2024-01-07T03:33:31;15.30;;;5.70;;
72198;SDS011;72266;51.056;16.880;2024-01-07T03:36:07;14.80;;;5.90;;
72198;SDS011;72266;51.056;16.880;2024-01-07T03:38:41;16.90;;;5.70;;
72198;SDS011;72266;51.056;16.880;2024-01-07T03:41:17;11.10;;;3.80;;
72198;SDS011;72266;51.056;16.880;2024-01-07T03:43:51;14.20;;;4.80;;
72198;SDS011;72266;51.056;16.880;2024-01-07T03:46:35;11.50;;;4.30;;
72198;SDS011;72266;51.056;16.880;2024-01-07T03:49:37;10.40;;;4.10;;
72198;SDS011;72266;51.056;16.880;2024-01-07T03:52:12;15.10;;;5.70;;
72198;SDS011;72266;51.056;16.880;2024-01-07T03:54:45;8.80;;;3.50;;
72198;SDS011;72266;51.056;16.880;2024-01-07T03:57:19;8.50;;;2.90;;
72198;SDS011;72266;51.056;16.880;2024-01-07T03:59:53;15.80;;;5.20;;
72198;SDS011;72266;51.056;16.880;2024-01-07T04:02:26;9.40;;;3.70;;
72198;SDS011;72266;51.056;16.880;2024-01-07T04:04:59;13.70;;;5.40;;
72198;SDS011;72266;51.056;16.880;2024-01-07T04:07:32;17.90;;;5.90;;
72198;SDS011;72266;51.056;16.880;2024-01-07T04:10:09;17.80;;;5.50;;
72198;SDS011;72266;51.056;16.880;2024-01-07T04:13:16;13.00;;;4.60;;
72198;SDS011;72266;51.056;16.880;2024-01-07T04:15:50;14.90;;;5.10;;
72198;SDS011;72266;51.056;16.880;2024-01-07T04:18:24;16.60;;;6.60;;
72198;SDS011;72266;51.056;16.880;2024-01-07T04:20:57;16.00;;;5.90;;
72198;SDS011;72266;51.056;16.880;2024-01-07T04:23:30;17.70;;;5.20;;
72198;SDS011;72266;51.056;16.880;2024-01-07T04:26:04;15.40;;;5.70;;
72198;SDS011;72266;51.056;16.880;2024-01-07T04:28:40;12.50;;;5.20;;
72198;SDS011;72266;51.056;16.880;2024-01-07T04:31:14;12.20;;;5.20;;
72198;SDS011;72266;51.056;16.880;2024-01-07T04:33:50;10.40;;;3.80;;
72198;SDS011;72266;51.056;16.880;2024-01-07T04:36:23;11.80;;;4.50;;
72198;SDS011;72266;51.056;16.880;2024-01-07T04:38:56;10.80;;;4.80;;
72198;SDS011;72266;51.056;16.880;2024-01-07T04:41:38;11.00;;;3.50;;
72198;SDS011;72266;51.056;16.880;2024-01-07T04:44:45;19.80;;;6.00;;
72198;SDS011;72266;51.056;16.880;2024-01-07T04:47:39;13.90;;;5.10;;
72198;SDS011;72266;51.056;16.880;2024-01-07T04:50:38;11.40;;;4.20;;
72198;SDS011;72266;51.056;16.880;2024-01-07T04:53:28;11.40;;;3.80;;
72198;SDS011;72266;51.056;16.880;2024-01-07T04:56:02;10.80;;;4.10;;
72198;SDS011;72266;51.056;16.880;2024-01-07T04:58:36;9.80;;;3.20;;
72198;SDS011;72266;51.056;16.880;2024-01-07T05:01:10;10.20;;;3.20;;
72198;SDS011;72266;51.056;16.880;2024-01-07T05:03:44;9.80;;;3.50;;
72198;SDS011;72266;51.056;16.880;2024-01-07T05:06:20;9.60;;;3.90;;
72198;SDS011;72266;51.056;16.880;2024-01-07T05:08:53;9.30;;;3.40;;
72198;SDS011;72266;51.056;16.880;2024-01-07T05:11:27;8.80;;;3.30;;
72198;SDS011;72266;51.056;16.880;2024-01-07T05:14:00;10.80;;;4.70;;
72198;SDS011;72266;51.056;16.880;2024-01-07T05:16:33;12.10;;;4.90;;
72198;SDS011;72266;51.056;16.880;2024-01-07T05:19:07;13.40;;;4.90;;
72198;SDS011;72266;51.056;16.880;2024-01-07T05:21:50;9.20;;;3.80;;
72198;SDS011;72266;51.056;16.880;2024-01-07T05:24:33;12.00;;;4.00;;
72198;SDS011;72266;51.056;16.880;2024-01-07T05:27:06;7.40;;;3.00;;
72198;SDS011;72266;51.056;16.880;2024-01-07T05:29:39;11.50;;;4.40;;
72198;SDS011;72266;51.056;16.880;2024-01-07T05:32:18;7.70;;;3.10;;
72198;SDS011;72266;51.056;16.880;2024-01-07T05:34:51;12.60;;;4.20;;
72198;SDS011;72266;51.056;16.880;2024-01-07T05:37:24;11.90;;;4.60;;
72198;SDS011;72266;51.056;16.880;2024-01-07T05:39:59;13.60;;;6.20;;
72198;SDS011;72266;51.056;16.880;2024-01-07T05:42:32;9.20;;;3.10;;
72198;SDS011;72266;51.056;16.880;2024-01-07T05:45:06;11.90;;;3.50;;
72198;SDS011;72266;51.056;16.880;2024-01-07T05:47:39;10.30;;;4.40;;
72198;SDS011;72266;51.056;16.880;2024-01-07T05:50:12;11.40;;;4.50;;
72198;SDS011;72266;51.056;16.880;2024-01-07T05:52:48;12.90;;;4.30;;
72198;SDS011;72266;51.056;16.880;2024-01-07T05:55:35;9.50;;;3.70;;
72198;SDS011;72266;51.056;16.880;2024-01-07T05:58:19;9.90;;;3.30;;
72198;SDS011;72266;51.056;16.880;2024-01-07T06:00:52;8.10;;;2.90;;
72198;SDS011;72266;51.056;16.880;2024-01-07T06:03:25;9.70;;;3.70;;
72198;SDS011;72266;51.056;16.880;2024-01-07T06:05:59;10.30;;;4.40;;
72198;SDS011;72266;51.056;16.880;2024-01-07T06:08:33;7.40;;;3.30;;
72198;SDS011;72266;51.056;16.880;2024-01-07T06:11:06;13.80;;;4.30;;
72198;SDS011;72266;51.056;16.880;2024-01-07T06:13:40;9.30;;;3.80;;
72198;SDS011;72266;51.056;16.880;2024-01-07T06:16:14;10.30;;;4.60;;
72198;SDS011;72266;51.056;16.880;2024-01-07T06:18:47;7.90;;;2.90;;
72198;SDS011;72266;51.056;16.880;2024-01-07T06:21:21;10.40;;;3.60;;
72198;SDS011;72266;51.056;16.880;2024-01-07T06:23:54;8.50;;;3.40;;
72198;SDS011;72266;51.056;16.880;2024-01-07T06:26:44;9.80;;;3.60;;
72198;SDS011;72266;51.056;16.880;2024-01-07T06:29:27;10.20;;;4.20;;
72198;SDS011;72266;51.056;16.880;2024-01-07T06:32:08;10.60;;;4.50;;
72198;SDS011;72266;51.056;16.880;2024-01-07T06:35:11;9.50;;;4.00;;
72198;SDS011;72266;51.056;16.880;2024-01-07T06:38:14;9.80;;;3.90;;
72198;SDS011;72266;51.056;16.880;2024-01-07T06:40:47;9.60;;;3.40;;
72198;SDS011;72266;51.056;16.880;2024-01-07T06:43:32;9.60;;;4.00;;
72198;SDS011;72266;51.056;16.880;2024-01-07T06:46:27;11.10;;;3.80;;
72198;SDS011;72266;51.056;16.880;2024-01-07T06:49:12;8.70;;;3.30;;
72198;SDS011;72266;51.056;16.880;2024-01-07T06:52:08;9.20;;;3.30;;
72198;SDS011;72266;51.056;16.880;2024-01-07T06:54:54;11.00;;;4.50;;
72198;SDS011;72266;51.056;16.880;2024-01-07T06:57:45;8.80;;;3.40;;
72198;SDS011;72266;51.056;16.880;2024-01-07T07:00:31;9.30;;;3.60;;
72198;SDS011;72266;51.056;16.880;2024-01-07T07:03:10;9.60;;;3.30;;
72198;SDS011;72266;51.056;16.880;2024-01-07T07:05:43;11.80;;;3.60;;
72198;SDS011;72266;51.056;16.880;2024-01-07T07:08:17;11.70;;;4.40;;
72198;SDS011;72266;51.056;16.880;2024-01-07T07:10:50;10.00;;;3.80;;
72198;SDS011;72266;51.056;16.880;2024-01-07T07:13:24;10.30;;;4.00;;
72198;SDS011;72266;51.056;16.880;2024-01-07T07:15:58;7.70;;;3.00;;
72198;SDS011;72266;51.056;16.880;2024-01-07T07:18:31;10.40;;;3.90;;
72198;SDS011;72266;51.056;16.880;2024-01-07T07:21:05;8.10;;;3.50;;
72198;SDS011;72266;51.056;16.880;2024-01-07T07:23:38;9.00;;;3.50;;
72198;SDS011;72266;51.056;16.880;2024-01-07T07:26:13;9.50;;;3.30;;
72198;SDS011;72266;51.056;16.880;2024-01-07T07:28:46;9.20;;;3.50;;
72198;SDS011;72266;51.056;16.880;2024-01-07T07:31:23;8.10;;;3.50;;
72198;SDS011;72266;51.056;16.880;2024-01-07T07:34:02;8.30;;;2.70;;
72198;SDS011;72266;51.056;16.880;2024-01-07T07:36:36;9.80;;;3.10;;
72198;SDS011;72266;51.056;16.880;2024-01-07T07:39:10;8.30;;;3.20;;
72198;SDS011;72266;51.056;16.880;2024-01-07T07:41:46;8.10;;;2.50;;
72198;SDS011;72266;51.056;16.880;2024-01-07T07:44:19;9.60;;;3.80;;
72198;SDS011;72266;51.056;16.880;2024-01-07T07:46:54;4.90;;;2.00;;
72198;SDS011;72266;51.056;16.880;2024-01-07T07:49:27;8.70;;;2.50;;
72198;SDS011;72266;51.056;16.880;2024-01-07T07:52:00;8.00;;;2.70;;
72198;SDS011;72266;51.056;16.880;2024-01-07T07:54:34;7.80;;;2.40;;
72198;SDS011;72266;51.056;16.880;2024-01-07T07:57:08;8.70;;;2.10;;
72198;SDS011;72266;51.056;16.880;2024-01-07T07:59:41;10.00;;;3.30;;
72198;SDS011;72266;51.056;16.880;2024-01-07T08:02:14;6.00;;;2.10;;
72198;SDS011;72266;51.056;16.880;2024-01-07T08:05:05;7.10;;;2.10;;
72198;SDS011;72266;51.056;16.880;2024-01-07T08:07:55;8.30;;;2.60;;
72198;SDS011;72266;51.056;16.880;2024-01-07T08:10:28;5.80;;;1.90;;
72198;SDS011;72266;51.056;16.880;2024-01-07T08:13:02;9.30;;;3.10;;
72198;SDS011;72266;51.056;16.880;2024-01-07T08:15:37;6.20;;;1.80;;
72198;SDS011;72266;51.056;16.880;2024-01-07T08:18:11;5.10;;;2.00;;
72198;SDS011;72266;51.056;16.880;2024-01-07T08:20:45;6.60;;;2.00;;
72198;SDS011;72266;51.056;16.880;2024-01-07T08:23:18;6.40;;;2.20;;
72198;SDS011;72266;51.056;16.880;2024-01-07T08:25:57;8.80;;;3.00;;
72198;SDS011;72266;51.056;16.880;2024-01-07T08:28:30;8.50;;;2.50;;
72198;SDS011;72266;51.056;16.880;2024-01-07T08:31:03;7.40;;;2.10;;
72198;SDS011;72266;51.056;16.880;2024-01-07T08:33:38;7.10;;;2.40;;
72198;SDS011;72266;51.056;16.880;2024-01-07T08:36:12;6.70;;;2.00;;
72198;SDS011;72266;51.056;16.880;2024-01-07T08:38:45;7.00;;;2.80;;
72198;SDS011;72266;51.056;16.880;2024-01-07T08:41:19;7.10;;;2.20;;
72198;SDS011;72266;51.056;16.880;2024-01-07T08:43:52;5.70;;;1.70;;
72198;SDS011;72266;51.056;16.880;2024-01-07T08:46:26;5.40;;;1.80;;
72198;SDS011;72266;51.056;16.880;2024-01-07T08:49:01;6.80;;;2.30;;
72198;SDS011;72266;51.056;16.880;2024-01-07T08:51:38;5.10;;;1.60;;
72198;SDS011;72266;51.056;16.880;2024-01-07T08:54:12;9.70;;;2.60;;
72198;SDS011;72266;51.056;16.880;2024-01-07T08:56:46;7.20;;;2.90;;
72198;SDS011;72266;51.056;16.880;2024-01-07T08:59:20;8.00;;;2.70;;
72198;SDS011;72266;51.056;16.880;2024-01-07T09:01:54;6.70;;;2.30;;
72198;SDS011;72266;51.056;16.880;2024-01-07T09:04:27;6.30;;;2.40;;
72198;SDS011;72266;51.056;16.880;2024-01-07T09:07:02;7.40;;;2.40;;
72198;SDS011;72266;51.056;16.880;2024-01-07T09:09:35;13.20;;;3.20;;
72198;SDS011;72266;51.056;16.880;2024-01-07T09:12:10;7.90;;;2.90;;
72198;SDS011;72266;51.056;16.880;2024-01-07T09:14:44;8.40;;;3.40;;
72198;SDS011;72266;51.056;16.880;2024-01-07T09:17:17;9.60;;;3.80;;
72198;SDS011;72266;51.056;16.880;2024-01-07T09:19:52;11.20;;;3.70;;
72198;SDS011;72266;51.056;16.880;2024-01-07T09:22:25;9.30;;;3.60;;
72198;SDS011;72266;51.056;16.880;2024-01-07T09:24:58;9.60;;;3.80;;
72198;SDS011;72266;51.056;16.880;2024-01-07T09:27:33;10.60;;;4.00;;
72198;SDS011;72266;51.056;16.880;2024-01-07T09:30:08;12.30;;;5.10;;
72198;SDS011;72266;51.056;16.880;2024-01-07T09:32:45;11.20;;;4.40;;
72198;SDS011;72266;51.056;16.880;2024-01-07T09:35:18;9.60;;;4.20;;
72198;SDS011;72266;51.056;16.880;2024-01-07T09:37:51;11.70;;;4.90;;
72198;SDS011;72266;51.056;16.880;2024-01-07T09:40:25;12.90;;;4.50;;
72198;SDS011;72266;51.056;16.880;2024-01-07T09:43:00;8.60;;;3.70;;
72198;SDS011;72266;51.056;16.880;2024-01-07T09:45:34;12.30;;;5.20;;
72198;SDS011;72266;51.056;16.880;2024-01-07T09:48:09;9.40;;;4.00;;
72198;SDS011;72266;51.056;16.880;2024-01-07T09:50:42;12.20;;;4.00;;
72198;SDS011;72266;51.056;16.880;2024-01-07T09:53:20;10.40;;;4.00;;
72198;SDS011;72266;51.056;16.880;2024-01-07T09:55:56;11.00;;;4.60;;
72198;SDS011;72266;51.056;16.880;2024-01-07T09:58:36;10.10;;;3.00;;
72198;SDS011;72266;51.056;16.880;2024-01-07T10:01:10;8.90;;;3.40;;
72198;SDS011;72266;51.056;16.880;2024-01-07T10:03:44;9.00;;;3.10;;
72198;SDS011;72266;51.056;16.880;2024-01-07T10:06:21;9.40;;;2.90;;
72198;SDS011;72266;51.056;16.880;2024-01-07T10:08:54;11.00;;;3.50;;
72198;SDS011;72266;51.056;16.880;2024-01-07T10:11:30;9.80;;;3.20;;
72198;SDS011;72266;51.056;16.880;2024-01-07T10:14:05;11.50;;;3.20;;
72198;SDS011;72266;51.056;16.880;2024-01-07T10:16:38;11.10;;;4.80;;
72198;SDS011;72266;51.056;16.880;2024-01-07T10:19:12;10.10;;;4.10;;
72198;SDS011;72266;51.056;16.880;2024-01-07T10:22:04;10.80;;;3.50;;
72198;SDS011;72266;51.056;16.880;2024-01-07T10:24:39;7.80;;;2.30;;
72198;SDS011;72266;51.056;16.880;2024-01-07T10:27:13;6.00;;;2.30;;
72198;SDS011;72266;51.056;16.880;2024-01-07T10:29:48;10.00;;;3.90;;
72198;SDS011;72266;51.056;16.880;2024-01-07T10:32:25;9.00;;;3.10;;
72198;SDS011;72266;51.056;16.880;2024-01-07T10:35:03;8.50;;;3.40;;
72198;SDS011;72266;51.056;16.880;2024-01-07T10:37:37;8.00;;;3.30;;
72198;SDS011;72266;51.056;16.880;2024-01-07T10:40:11;8.50;;;2.40;;
72198;SDS011;72266;51.056;16.880;2024-01-07T10:42:44;8.20;;;2.90;;
72198;SDS011;72266;51.056;16.880;2024-01-07T10:45:18;11.00;;;3.60;;
72198;SDS011;72266;51.056;16.880;2024-01-07T10:47:54;8.20;;;3.10;;
72198;SDS011;72266;51.056;16.880;2024-01-07T10:50:27;9.40;;;3.70;;
72198;SDS011;72266;51.056;16.880;2024-01-07T10:53:03;10.20;;;3.30;;
72198;SDS011;72266;51.056;16.880;2024-01-07T10:55:37;10.80;;;4.10;;
72198;SDS011;72266;51.056;16.880;2024-01-07T10:58:11;9.40;;;3.50;;
72198;SDS011;72266;51.056;16.880;2024-01-07T11:00:45;8.40;;;3.30;;
72198;SDS011;72266;51.056;16.880;2024-01-07T11:03:20;21.30;;;9.60;;
72198;SDS011;72266;51.056;16.880;2024-01-07T11:06:00;11.20;;;5.10;;
72198;SDS011;72266;51.056;16.880;2024-01-07T11:08:37;9.10;;;3.10;;
72198;SDS011;72266;51.056;16.880;2024-01-07T11:11:16;9.40;;;3.50;;
72198;SDS011;72266;51.056;16.880;2024-01-07T11:13:54;8.20;;;2.80;;
72198;SDS011;72266;51.056;16.880;2024-01-07T11:16:42;10.20;;;3.90;;
72198;SDS011;72266;51.056;16.880;2024-01-07T11:19:16;10.40;;;3.50;;
72198;SDS011;72266;51.056;16.880;2024-01-07T11:21:53;12.30;;;4.10;;
72198;SDS011;72266;51.056;16.880;2024-01-07T11:24:39;10.30;;;3.40;;
72198;SDS011;72266;51.056;16.880;2024-01-07T11:27:13;9.10;;;3.20;;
72198;SDS011;72266;51.056;16.880;2024-01-07T11:29:54;7.60;;;2.80;;
72198;SDS011;72266;51.056;16.880;2024-01-07T11:32:30;12.40;;;3.80;;
72198;SDS011;72266;51.056;16.880;2024-01-07T11:35:04;10.40;;;3.00;;
72198;SDS011;72266;51.056;16.880;2024-01-07T11:37:39;9.60;;;2.70;;
72198;SDS011;72266;51.056;16.880;2024-01-07T11:40:21;11.10;;;3.80;;
72198;SDS011;72266;51.056;16.880;2024-01-07T11:43:07;11.80;;;4.40;;
72198;SDS011;72266;51.056;16.880;2024-01-07T11:45:49;12.70;;;4.70;;
72198;SDS011;72266;51.056;16.880;2024-01-07T11:48:43;9.80;;;3.30;;
72198;SDS011;72266;51.056;16.880;2024-01-07T11:51:26;10.80;;;4.10;;
72198;SDS011;72266;51.056;16.880;2024-01-07T11:54:15;9.70;;;3.10;;
72198;SDS011;72266;51.056;16.880;2024-01-07T11:57:02;11.40;;;3.70;;
72198;SDS011;72266;51.056;16.880;2024-01-07T12:00:06;8.90;;;3.30;;
72198;SDS011;72266;51.056;16.880;2024-01-07T12:02:47;10.30;;;4.30;;
72198;SDS011;72266;51.056;16.880;2024-01-07T12:05:21;11.10;;;4.50;;
72198;SDS011;72266;51.056;16.880;2024-01-07T12:07:55;10.40;;;3.80;;
72198;SDS011;72266;51.056;16.880;2024-01-07T12:10:43;10.20;;;3.80;;
72198;SDS011;72266;51.056;16.880;2024-01-07T12:13:17;10.60;;;4.20;;
72198;SDS011;72266;51.056;16.880;2024-01-07T12:15:53;14.30;;;4.70;;
72198;SDS011;72266;51.056;16.880;2024-01-07T12:18:27;12.20;;;4.50;;
72198;SDS011;72266;51.056;16.880;2024-01-07T12:21:04;15.60;;;4.40;;
72198;SDS011;72266;51.056;16.880;2024-01-07T12:23:37;11.50;;;4.10;;
72198;SDS011;72266;51.056;16.880;2024-01-07T12:26:14;12.80;;;4.50;;
72198;SDS011;72266;51.056;16.880;2024-01-07T12:28:53;11.70;;;3.80;;
72198;SDS011;72266;51.056;16.880;2024-01-07T12:31:32;15.40;;;6.00;;
72198;SDS011;72266;51.056;16.880;2024-01-07T12:34:07;12.20;;;3.80;;
72198;SDS011;72266;51.056;16.880;2024-01-07T12:36:40;13.10;;;4.80;;
72198;SDS011;72266;51.056;16.880;2024-01-07T12:39:16;9.80;;;3.80;;
72198;SDS011;72266;51.056;16.880;2024-01-07T12:41:51;12.90;;;5.50;;
72198;SDS011;72266;51.056;16.880;2024-01-07T12:44:28;15.60;;;6.10;;
72198;SDS011;72266;51.056;16.880;2024-01-07T12:47:01;10.30;;;4.00;;
72198;SDS011;72266;51.056;16.880;2024-01-07T12:49:35;15.80;;;6.90;;
72198;SDS011;72266;51.056;16.880;2024-01-07T12:52:09;12.10;;;4.90;;
72198;SDS011;72266;51.056;16.880;2024-01-07T12:54:43;12.00;;;4.50;;
72198;SDS011;72266;51.056;16.880;2024-01-07T12:57:17;11.70;;;4.40;;
72198;SDS011;72266;51.056;16.880;2024-01-07T12:59:53;11.20;;;4.70;;
72198;SDS011;72266;51.056;16.880;2024-01-07T13:02:26;13.20;;;4.60;;
72198;SDS011;72266;51.056;16.880;2024-01-07T13:05:00;15.70;;;4.90;;
72198;SDS011;72266;51.056;16.880;2024-01-07T13:07:35;22.20;;;5.10;;
72198;SDS011;72266;51.056;16.880;2024-01-07T13:10:09;16.10;;;7.00;;
72198;SDS011;72266;51.056;16.880;2024-01-07T13:12:47;13.20;;;4.80;;
72198;SDS011;72266;51.056;16.880;2024-01-07T13:15:29;11.60;;;4.40;;
72198;SDS011;72266;51.056;16.880;2024-01-07T13:18:03;10.10;;;4.10;;
72198;SDS011;72266;51.056;16.880;2024-01-07T13:20:40;12.60;;;5.50;;
72198;SDS011;72266;51.056;16.880;2024-01-07T13:23:13;14.20;;;6.40;;
72198;SDS011;72266;51.056;16.880;2024-01-07T13:25:47;13.20;;;4.70;;
72198;SDS011;72266;51.056;16.880;2024-01-07T13:28:24;12.20;;;5.00;;
72198;SDS011;72266;51.056;16.880;2024-01-07T13:31:01;15.40;;;5.30;;
72198;SDS011;72266;51.056;16.880;2024-01-07T13:33:35;10.70;;;5.30;;
72198;SDS011;72266;51.056;16.880;2024-01-07T13:36:09;9.10;;;3.80;;
72198;SDS011;72266;51.056;16.880;2024-01-07T13:38:44;11.90;;;4.60;;
72198;SDS011;72266;51.056;16.880;2024-01-07T13:41:20;10.60;;;4.50;;
72198;SDS011;72266;51.056;16.880;2024-01-07T13:43:53;12.60;;;5.30;;
72198;SDS011;72266;51.056;16.880;2024-01-07T13:46:27;10.60;;;3.90;;
72198;SDS011;72266;51.056;16.880;2024-01-07T13:49:02;10.10;;;3.40;;
72198;SDS011;72266;51.056;16.880;2024-01-07T13:51:38;16.30;;;6.70;;
72198;SDS011;72266;51.056;16.880;2024-01-07T13:54:11;13.80;;;5.20;;
72198;SDS011;72266;51.056;16.880;2024-01-07T13:56:46;11.10;;;4.40;;
72198;SDS011;72266;51.056;16.880;2024-01-07T13:59:24;17.90;;;6.30;;
72198;SDS011;72266;51.056;16.880;2024-01-07T14:01:58;16.30;;;7.00;;
72198;SDS011;72266;51.056;16.880;2024-01-07T14:04:33;11.60;;;5.00;;
72198;SDS011;72266;51.056;16.880;2024-01-07T14:07:07;15.60;;;6.80;;
72198;SDS011;72266;51.056;16.880;2024-01-07T14:09:40;16.90;;;6.80;;
72198;SDS011;72266;51.056;16.880;2024-01-07T14:12:14;12.90;;;4.00;;
72198;SDS011;72266;51.056;16.880;2024-01-07T14:14:48;12.80;;;5.20;;
72198;SDS011;72266;51.056;16.880;2024-01-07T14:17:21;14.60;;;6.10;;
72198;SDS011;72266;51.056;16.880;2024-01-07T14:19:55;11.40;;;4.70;;
72198;SDS011;72266;51.056;16.880;2024-01-07T14:22:28;14.00;;;4.80;;
72198;SDS011;72266;51.056;16.880;2024-01-07T14:25:03;15.20;;;6.70;;
72198;SDS011;72266;51.056;16.880;2024-01-07T14:27:40;14.50;;;5.50;;
72198;SDS011;72266;51.056;16.880;2024-01-07T14:30:14;11.00;;;4.90;;
72198;SDS011;72266;51.056;16.880;2024-01-07T14:32:48;16.10;;;4.90;;
72198;SDS011;72266;51.056;16.880;2024-01-07T14:35:22;12.30;;;5.10;;
72198;SDS011;72266;51.056;16.880;2024-01-07T14:37:59;16.00;;;6.80;;
72198;SDS011;72266;51.056;16.880;2024-01-07T14:40:37;11.40;;;4.30;;
72198;SDS011;72266;51.056;16.880;2024-01-07T14:43:19;15.10;;;4.30;;
72198;SDS011;72266;51.056;16.880;2024-01-07T14:45:54;17.00;;;6.10;;
72198;SDS011;72266;51.056;16.880;2024-01-07T14:48:28;18.60;;;8.60;;
72198;SDS011;72266;51.056;16.880;2024-01-07T14:51:02;18.80;;;8.10;;
72198;SDS011;72266;51.056;16.880;2024-01-07T14:53:35;20.70;;;7.60;;
72198;SDS011;72266;51.056;16.880;2024-01-07T14:56:09;15.00;;;6.20;;
72198;SDS011;72266;51.056;16.880;2024-01-07T14:58:44;15.80;;;7.40;;
72198;SDS011;72266;51.056;16.880;2024-01-07T15:01:17;16.10;;;6.20;;
72198;SDS011;72266;51.056;16.880;2024-01-07T15:03:51;15.20;;;6.00;;
72198;SDS011;72266;51.056;16.880;2024-01-07T15:06:26;17.00;;;7.00;;
72198;SDS011;72266;51.056;16.880;2024-01-07T15:09:00;12.80;;;5.60;;
72198;SDS011;72266;51.056;16.880;2024-01-07T15:11:39;16.20;;;5.30;;
72198;SDS011;72266;51.056;16.880;2024-01-07T15:14:17;18.80;;;7.20;;
72198;SDS011;72266;51.056;16.880;2024-01-07T15:16:51;13.40;;;5.60;;
72198;SDS011;72266;51.056;16.880;2024-01-07T15:19:26;12.90;;;5.60;;
72198;SDS011;72266;51.056;16.880;2024-01-07T15:22:00;18.90;;;7.50;;
72198;SDS011;72266;51.056;16.880;2024-01-07T15:24:34;16.60;;;6.90;;
72198;SDS011;72266;51.056;16.880;2024-01-07T15:27:09;13.60;;;6.50;;
72198;SDS011;72266;51.056;16.880;2024-01-07T15:29:51;18.70;;;6.90;;
72198;SDS011;72266;51.056;16.880;2024-01-07T15:32:29;18.10;;;6.80;;